Time;durP1;ratioP1;P1;durP2;ratioP2;P2;SDS_P1;SDS_P2;PMS_P1;PMS_P2;Temp;Humidity;BMP_temperature;BMP_pressure;BME280_temperature;BME280_humidity;BME280_pressure;Samples;Min_cycle;Max_cycle;Signal;HPM_P1;HPM_P2
2023/04/06 00:00:41;;;;;;;0.30;0.30;;;;;;;2.45;48.38;99849.38;5096619;28;20052;-65
2023/04/06 00:03:10;;;;;;;0.45;0.45;;;;;;;2.36;48.57;99854.94;5096513;28;20109;-65
2023/04/06 00:05:39;;;;;;;0.43;0.43;;;;;;;2.26;48.62;99855.44;5096775;28;20109;-65
2023/04/06 00:08:08;;;;;;;0.40;0.40;;;;;;;2.30;48.61;99849.72;5096849;28;20035;-66
2023/04/06 00:10:37;;;;;;;1.93;1.80;;;;;;;2.29;49.32;99850.50;5096704;28;20439;-66
2023/04/06 00:13:07;;;;;;;0.28;0.28;;;;;;;2.26;49.08;99850.41;5096284;28;20280;-65
2023/04/06 00:15:37;;;;;;;0.60;0.55;;;;;;;2.24;49.35;99851.16;5096083;28;20079;-66
2023/04/06 00:18:06;;;;;;;0.20;0.20;;;;;;;2.24;49.31;99853.66;5096261;28;20044;-65
2023/04/06 00:20:35;;;;;;;0.30;0.30;;;;;;;2.15;49.57;99846.66;5096517;28;20579;-65
2023/04/06 00:23:04;;;;;;;1.98;1.73;;;;;;;2.17;48.99;99842.53;5096309;28;20033;-66
2023/04/06 00:25:32;;;;;;;4.20;2.40;;;;;;;2.23;49.07;99837.69;5096355;28;20449;-65
2023/04/06 00:28:01;;;;;;;1.60;1.50;;;;;;;2.21;49.08;99831.75;5096363;28;20102;-65
2023/04/06 00:30:30;;;;;;;0.45;0.45;;;;;;;2.22;49.06;99828.44;5095996;28;20059;-65
2023/04/06 00:33:01;;;;;;;0.40;0.40;;;;;;;2.24;48.79;99831.88;5095849;28;20512;-65
2023/04/06 00:35:30;;;;;;;0.50;0.50;;;;;;;2.19;49.52;99833.38;5094213;28;20281;-65
2023/04/06 00:37:59;;;;;;;0.67;0.47;;;;;;;2.16;49.61;99825.69;5095830;28;20051;-65
2023/04/06 00:40:28;;;;;;;1.08;1.05;;;;;;;2.10;49.54;99823.00;5095001;28;20121;-65
2023/04/06 00:42:57;;;;;;;0.60;0.60;;;;;;;2.10;49.24;99817.94;5095722;28;20032;-65
2023/04/06 00:45:26;;;;;;;0.50;0.50;;;;;;;2.05;49.70;99824.47;5096064;28;20502;-65
2023/04/06 00:47:55;;;;;;;0.47;0.47;;;;;;;1.99;49.42;99829.31;5095979;28;20044;-65
2023/04/06 00:50:26;;;;;;;0.30;0.30;;;;;;;1.98;49.82;99827.59;5111764;28;20036;-65
2023/04/06 00:52:55;;;;;;;0.40;0.40;;;;;;;1.98;49.79;99827.59;5095651;28;20048;-65
2023/04/06 00:55:28;;;;;;;0.60;0.60;;;;;;;1.93;49.81;99824.91;5095572;28;20074;-65
2023/04/06 00:57:59;;;;;;;0.30;0.30;;;;;;;1.88;50.19;99836.47;5095425;28;20048;-66
2023/04/06 01:00:32;;;;;;;0.40;0.40;;;;;;;1.80;50.47;99826.94;5095747;28;20083;-65
2023/04/06 01:03:05;;;;;;;0.30;0.30;;;;;;;1.81;50.32;99831.16;5094242;28;20044;-65
2023/04/06 01:05:42;;;;;;;0.85;0.85;;;;;;;1.77;50.93;99832.72;5094072;28;20097;-65
2023/04/06 01:08:25;;;;;;;0.30;0.30;;;;;;;1.82;50.90;99830.38;5095311;28;20040;-65
2023/04/06 01:11:06;;;;;;;0.40;0.40;;;;;;;1.78;50.30;99823.50;5094302;28;20097;-65
2023/04/06 01:13:34;;;;;;;0.80;0.80;;;;;;;1.78;50.56;99828.53;5094241;28;20086;-65
2023/04/06 01:16:06;;;;;;;0.80;0.80;;;;;;;1.72;50.90;99828.31;5095060;28;20055;-66
2023/04/06 01:18:46;;;;;;;1.27;1.17;;;;;;;1.69;50.89;99830.72;5095028;28;20052;-66
2023/04/06 01:21:23;;;;;;;1.45;1.35;;;;;;;1.63;50.84;99825.47;5095371;28;20402;-66
2023/04/06 01:24:20;;;;;;;3.50;1.42;;;;;;;1.56;50.78;99826.06;5091090;28;20044;-66
2023/04/06 01:27:01;;;;;;;0.40;0.40;;;;;;;1.50;51.03;99825.81;5095251;28;20064;-66
2023/04/06 01:29:57;;;;;;;3.25;0.75;;;;;;;1.40;51.42;99823.75;5093587;28;20040;-66
2023/04/06 01:33:00;;;;;;;0.20;0.20;;;;;;;1.34;51.97;99825.22;5107904;28;20052;-66
2023/04/06 01:35:39;;;;;;;0.57;0.57;;;;;;;1.40;51.90;99821.22;5093603;28;20055;-66
2023/04/06 01:38:18;;;;;;;0.40;0.40;;;;;;;1.43;51.70;99828.91;5094724;28;20101;-66
2023/04/06 01:40:50;;;;;;;0.32;0.32;;;;;;;1.43;51.72;99822.22;5094763;28;20502;-66
2023/04/06 01:43:22;;;;;;;0.82;0.82;;;;;;;1.35;51.62;99819.41;5094946;28;20056;-66
2023/04/06 01:46:02;;;;;;;0.30;0.30;;;;;;;1.29;51.95;99816.69;5094518;28;20132;-66
2023/04/06 01:48:36;;;;;;;0.45;0.45;;;;;;;1.20;52.13;99816.31;5095211;28;20102;-66
2023/04/06 01:51:28;;;;;;;0.40;0.40;;;;;;;1.15;52.19;99821.97;5094910;28;20069;-67
2023/04/06 01:54:00;;;;;;;0.40;0.40;;;;;;;1.10;52.64;99823.44;5094543;28;20105;-66
2023/04/06 01:56:40;;;;;;;0.67;0.67;;;;;;;1.05;52.42;99823.28;5093751;28;20113;-66
2023/04/06 01:59:23;;;;;;;0.70;0.70;;;;;;;1.01;52.77;99818.91;5094303;28;20342;-66
2023/04/06 02:01:52;;;;;;;1.37;1.27;;;;;;;0.97;53.17;99811.19;5093408;28;20036;-66
2023/04/06 02:04:21;;;;;;;;;;;;;;;1.00;52.69;99818.84;5093718;28;20051;-67
2023/04/06 02:06:56;;;;;;;0.50;0.50;;;;;;;0.93;53.40;99819.41;5094095;28;19927;-67
2023/04/06 02:09:27;;;;;;;0.30;0.30;;;;;;;0.87;53.44;99817.50;5093320;28;20047;-68
2023/04/06 02:11:58;;;;;;;0.60;0.60;;;;;;;0.90;53.20;99815.13;5094139;28;20517;-66
2023/04/06 02:14:27;;;;;;;0.30;0.30;;;;;;;0.93;53.65;99814.41;5094162;28;20052;-66
2023/04/06 02:16:59;;;;;;;0.55;0.55;;;;;;;0.99;52.94;99807.94;5109803;28;20139;-66
2023/04/06 02:19:29;;;;;;;0.30;0.30;;;;;;;0.98;53.44;99813.78;5093058;28;20028;-68
2023/04/06 02:21:57;;;;;;;0.97;0.93;;;;;;;1.02;53.11;99808.06;5093983;28;20050;-68
2023/04/06 02:24:26;;;;;;;1.23;1.13;;;;;;;0.98;53.55;99802.88;5093277;28;20078;-67
2023/04/06 02:26:55;;;;;;;0.30;0.30;;;;;;;0.95;53.71;99806.13;5092675;28;20040;-67
2023/04/06 02:29:25;;;;;;;0.47;0.47;;;;;;;0.97;53.57;99807.03;5092996;28;20497;-66
2023/04/06 02:31:54;;;;;;;0.85;0.85;;;;;;;0.97;53.61;99802.00;5094225;28;20052;-68
2023/04/06 02:34:24;;;;;;;0.47;0.47;;;;;;;0.97;53.21;99801.16;5094141;28;20040;-67
2023/04/06 02:36:55;;;;;;;0.93;0.85;;;;;;;0.90;53.95;99790.00;5094281;28;20056;-67
2023/04/06 02:39:24;;;;;;;0.30;0.30;;;;;;;0.84;54.01;99797.28;5093753;28;20093;-67
2023/04/06 02:41:53;;;;;;;2.42;2.22;;;;;;;0.87;54.07;99804.09;5093736;28;20059;-65
2023/04/06 02:44:27;;;;;;;0.93;0.93;;;;;;;0.88;53.81;99801.66;5093673;28;20061;-65
2023/04/06 02:46:56;;;;;;;1.10;1.10;;;;;;;0.83;54.09;99803.13;5092490;28;20048;-65
2023/04/06 02:49:26;;;;;;;0.55;0.55;;;;;;;0.76;54.62;99796.16;5092290;28;20047;-66
2023/04/06 02:51:57;;;;;;;12.52;3.47;;;;;;;0.70;54.57;99805.09;5093585;28;20052;-65
2023/04/06 02:54:30;;;;;;;2.65;1.70;;;;;;;0.69;54.58;99794.19;5093931;28;20052;-65
2023/04/06 02:57:00;;;;;;;0.75;0.75;;;;;;;0.69;54.53;99801.72;5094765;28;20130;-66
2023/04/06 02:59:42;;;;;;;2.03;1.38;;;;;;;0.63;54.90;99803.97;5097634;28;20121;-65
2023/04/06 03:02:23;;;;;;;0.45;0.45;;;;;;;0.61;55.08;99805.56;5096608;28;20505;-66
2023/04/06 03:04:54;;;;;;;1.13;1.10;;;;;;;0.62;54.85;99802.28;5096819;28;20063;-65
2023/04/06 03:07:32;;;;;;;0.40;0.40;;;;;;;0.63;55.14;99793.94;5097713;28;20063;-65
2023/04/06 03:10:01;;;;;;;1.07;0.70;;;;;;;0.63;54.96;99791.41;5097544;28;20048;-65
2023/04/06 03:12:32;;;;;;;0.50;0.50;;;;;;;0.56;54.88;99787.81;5097915;28;20048;-65
2023/04/06 03:15:13;;;;;;;0.60;0.60;;;;;;;0.57;54.98;99793.69;5097253;28;20052;-66
2023/04/06 03:17:47;;;;;;;0.52;0.52;;;;;;;0.64;54.99;99785.63;5097464;28;20044;-65
2023/04/06 03:20:27;;;;;;;0.70;0.70;;;;;;;0.55;55.03;99781.06;5097591;28;20543;-66
2023/04/06 03:22:56;;;;;;;0.27;0.27;;;;;;;0.60;55.10;99791.31;5097591;28;20502;-65
2023/04/06 03:25:29;;;;;;;1.25;1.17;;;;;;;0.58;54.92;99785.34;5097355;28;20299;-66
2023/04/06 03:28:03;;;;;;;1.52;1.42;;;;;;;0.58;55.03;99780.34;5097274;28;20051;-66
2023/04/06 03:30:37;;;;;;;1.63;1.42;;;;;;;0.62;55.19;99782.19;5097193;28;20050;-66
2023/04/06 03:33:06;;;;;;;0.20;0.20;;;;;;;0.61;54.83;99777.94;5096604;28;20056;-66
2023/04/06 03:35:43;;;;;;;2.30;0.88;;;;;;;0.65;54.99;99783.16;5096143;28;20417;-66
2023/04/06 03:38:12;;;;;;;1.45;1.30;;;;;;;0.68;54.96;99779.91;5096994;28;20040;-66
2023/04/06 03:40:42;;;;;;;0.20;0.20;;;;;;;0.68;54.80;99783.28;5096950;28;20044;-66
2023/04/06 03:43:11;;;;;;;0.30;0.30;;;;;;;0.64;54.68;99780.59;5097912;28;20036;-66
2023/04/06 03:45:42;;;;;;;;;;;;;;;0.63;54.64;99773.84;5097340;28;20055;-66
2023/04/06 03:48:10;;;;;;;0.30;0.30;;;;;;;0.59;54.79;99774.53;5095668;28;19920;-66
2023/04/06 03:50:40;;;;;;;0.30;0.30;;;;;;;0.57;54.78;99778.63;5095817;28;20398;-66
2023/04/06 03:53:09;;;;;;;0.75;0.75;;;;;;;0.53;55.04;99777.66;5096878;28;20040;-66
2023/04/06 03:55:38;;;;;;;4.70;2.63;;;;;;;0.50;55.06;99781.69;5095816;28;20040;-66
2023/04/06 03:58:06;;;;;;;0.30;0.30;;;;;;;0.55;55.15;99782.75;5095551;28;20127;-66
2023/04/06 04:00:35;;;;;;;7.60;3.60;;;;;;;0.60;54.93;99781.28;5096467;28;20044;-66
2023/04/06 04:03:05;;;;;;;1.55;1.45;;;;;;;0.61;54.84;99776.31;5096838;28;20281;-66
2023/04/06 04:05:35;;;;;;;0.45;0.45;;;;;;;0.62;54.91;99782.19;5097180;28;20436;-66
2023/04/06 04:08:04;;;;;;;2.70;0.98;;;;;;;0.52;55.04;99775.94;5095220;28;20044;-66
2023/04/06 04:10:33;;;;;;;0.50;0.50;;;;;;;0.45;55.72;99788.19;5096451;28;20043;-66
2023/04/06 04:13:01;;;;;;;0.87;0.87;;;;;;;0.44;55.49;99791.47;5096321;28;20040;-66
2023/04/06 04:15:31;;;;;;;0.95;0.95;;;;;;;0.43;55.50;99790.63;5096365;28;20105;-66
2023/04/06 04:17:59;;;;;;;2.03;1.92;;;;;;;0.41;55.70;99786.31;5096378;28;20051;-66
2023/04/06 04:20:30;;;;;;;0.60;0.60;;;;;;;0.38;56.08;99796.25;5094982;28;20032;-66
2023/04/06 04:22:59;;;;;;;0.73;0.73;;;;;;;0.31;56.11;99784.25;5112270;28;20435;-66
2023/04/06 04:25:30;;;;;;;1.98;1.75;;;;;;;0.28;56.16;99790.00;5096113;28;20044;-66
2023/04/06 04:27:59;;;;;;;0.55;0.55;;;;;;;0.24;56.31;99784.78;5096408;28;20040;-67
2023/04/06 04:30:28;;;;;;;3.55;2.58;;;;;;;0.22;56.39;99783.84;5094882;28;20535;-66
2023/04/06 04:32:57;;;;;;;0.65;0.65;;;;;;;0.23;56.51;99788.09;5094921;28;20044;-67
2023/04/06 04:35:26;;;;;;;1.27;1.17;;;;;;;0.19;56.52;99773.72;5094734;28;20513;-66
2023/04/06 04:37:57;;;;;;;2.42;2.22;;;;;;;0.29;56.43;99790.88;5095854;28;20047;-68
2023/04/06 04:40:27;;;;;;;0.88;0.88;;;;;;;0.32;56.17;99790.97;5094555;28;20523;-67
2023/04/06 04:43:04;;;;;;;1.40;1.20;;;;;;;0.37;56.37;99794.53;5096023;28;20048;-67
2023/04/06 04:45:35;;;;;;;0.80;0.80;;;;;;;0.41;56.27;99786.31;5095916;28;20101;-69
2023/04/06 04:48:25;;;;;;;0.90;0.90;;;;;;;0.47;56.27;99787.44;5095434;28;20127;-66
2023/04/06 04:50:59;;;;;;;0.60;0.60;;;;;;;0.49;56.29;99785.84;5095725;28;20098;-68
2023/04/06 04:53:37;;;;;;;0.47;0.47;;;;;;;0.35;56.40;99755.97;5094845;28;20506;-68
2023/04/06 04:56:17;;;;;;;0.52;0.52;;;;;;;0.57;56.34;99789.53;5095573;28;20059;-66
2023/04/06 04:58:49;;;;;;;2.15;1.95;;;;;;;0.60;56.51;99793.84;5095834;28;20055;-67
2023/04/06 05:01:19;;;;;;;0.50;0.50;;;;;;;0.64;56.47;99791.50;5094628;28;20460;-69
2023/04/06 05:03:48;;;;;;;2.97;2.22;;;;;;;0.74;56.51;99786.84;5094345;28;20040;-67
2023/04/06 05:06:19;;;;;;;0.85;0.82;;;;;;;0.72;56.29;99778.38;5095316;28;20052;-69
2023/04/06 05:08:49;;;;;;;2.55;1.90;;;;;;;0.80;56.62;99772.84;5094031;28;20044;-66
2023/04/06 05:11:18;;;;;;;1.35;1.25;;;;;;;0.86;56.61;99768.09;5094121;28;20048;-66
2023/04/06 05:13:55;;;;;;;0.80;0.80;;;;;;;0.94;56.37;99771.72;5110942;28;20048;-67
2023/04/06 05:16:26;;;;;;;4.57;0.95;;;;;;;1.07;56.28;99768.91;5094880;28;20055;-66
2023/04/06 05:18:56;;;;;;;0.68;0.68;;;;;;;1.15;56.38;99761.66;5095402;28;20067;-66
2023/04/06 05:21:32;;;;;;;0.30;0.30;;;;;;;1.37;56.11;99758.28;5093334;28;20044;-66
2023/04/06 05:24:08;;;;;;;2.30;1.20;;;;;;;1.52;55.31;99758.81;5094989;28;20044;-67
2023/04/06 05:26:38;;;;;;;1.35;1.27;;;;;;;1.66;55.37;99757.66;5094960;28;20090;-66
2023/04/06 05:29:14;;;;;;;1.70;1.60;;;;;;;1.82;54.95;99754.91;5094978;28;20051;-66
2023/04/06 05:31:43;;;;;;;3.17;1.42;;;;;;;1.94;55.37;99752.81;5093702;28;20044;-66
2023/04/06 05:34:12;;;;;;;0.80;0.80;;;;;;;2.10;54.93;99755.03;5094094;28;20406;-67
2023/04/06 05:36:42;;;;;;;0.43;0.43;;;;;;;2.24;54.32;99743.75;5094762;28;20604;-67
2023/04/06 05:39:21;;;;;;;0.68;0.68;;;;;;;2.45;53.46;99746.97;5094745;28;20048;-67
2023/04/06 05:41:52;;;;;;;1.85;1.75;;;;;;;2.56;53.52;99735.59;5094851;28;20500;-67
2023/04/06 05:44:44;;;;;;;0.55;0.55;;;;;;;2.78;52.42;99741.28;5094725;28;20044;-66
2023/04/06 05:47:16;;;;;;;0.65;0.65;;;;;;;2.95;51.75;99730.06;5094632;28;20071;-66
2023/04/06 05:49:50;;;;;;;6.47;0.95;;;;;;;3.15;51.87;99744.09;5094833;28;20075;-67
2023/04/06 05:52:27;;;;;;;0.68;0.68;;;;;;;3.26;50.89;99727.63;5094463;28;20066;-66
2023/04/06 05:54:57;;;;;;;1.00;0.97;;;;;;;3.54;50.41;99745.25;5094396;28;20118;-66
2023/04/06 05:57:27;;;;;;;1.05;1.02;;;;;;;3.73;49.14;99739.91;5092926;28;20044;-66
2023/04/06 05:59:56;;;;;;;0.47;0.47;;;;;;;3.81;49.34;99740.13;5094276;28;20549;-65
2023/04/06 06:02:31;;;;;;;1.73;1.63;;;;;;;3.93;48.81;99736.25;5094304;28;20502;-65
2023/04/06 06:05:01;;;;;;;0.50;0.50;;;;;;;4.01;48.42;99724.66;5094205;28;20089;-66
2023/04/06 06:07:29;;;;;;;0.40;0.40;;;;;;;3.99;48.30;99716.19;5109829;28;20078;-66
2023/04/06 06:10:04;;;;;;;0.63;0.63;;;;;;;4.15;47.50;99724.19;5094811;28;20052;-65
2023/04/06 06:12:37;;;;;;;0.30;0.30;;;;;;;4.30;47.83;99717.81;5094318;28;20401;-66
2023/04/06 06:15:07;;;;;;;;;;;;;;;4.37;47.48;99729.78;5090647;28;20048;-65
2023/04/06 06:17:40;;;;;;;2.53;1.85;;;;;;;4.45;46.80;99722.41;5093102;28;20388;-66
2023/04/06 06:20:09;;;;;;;1.08;1.05;;;;;;;4.55;46.19;99709.16;5094291;28;20044;-65
2023/04/06 06:22:40;;;;;;;2.65;2.42;;;;;;;4.58;46.39;99705.03;5094124;28;20130;-65
2023/04/06 06:25:15;;;;;;;0.93;0.93;;;;;;;4.70;46.28;99720.47;5093952;28;20090;-65
2023/04/06 06:27:46;;;;;;;2.20;2.05;;;;;;;4.73;45.69;99709.56;5092701;28;20094;-65
2023/04/06 06:30:18;;;;;;;1.98;1.83;;;;;;;4.79;45.86;99709.72;5094018;28;20451;-66
2023/04/06 06:32:52;;;;;;;0.75;0.75;;;;;;;4.80;45.55;99705.53;5092069;28;20051;-64
2023/04/06 06:35:21;;;;;;;7.22;2.25;;;;;;;4.74;45.73;99711.31;5094604;28;20044;-65
2023/04/06 06:37:50;;;;;;;1.25;1.15;;;;;;;4.72;45.39;99708.75;5092719;28;20110;-65
2023/04/06 06:40:25;;;;;;;2.90;1.70;;;;;;;4.79;45.44;99704.69;5093818;28;20509;-65
2023/04/06 06:42:56;;;;;;;3.53;1.88;;;;;;;4.81;45.69;99699.63;5093447;28;20040;-65
2023/04/06 06:45:35;;;;;;;;;;;;;;;4.83;45.16;99701.38;5093158;28;20051;-65
2023/04/06 06:48:04;;;;;;;2.05;0.77;;;;;;;4.89;45.01;99703.22;5092355;28;20022;-65
2023/04/06 06:50:33;;;;;;;1.35;1.25;;;;;;;4.94;45.07;99694.91;5093592;28;20068;-65
2023/04/06 06:53:02;;;;;;;1.65;1.55;;;;;;;5.00;45.13;99701.75;5092359;28;20036;-65
2023/04/06 06:55:32;;;;;;;3.30;1.38;;;;;;;5.01;45.00;99700.94;5092578;28;20036;-67
2023/04/06 06:58:01;;;;;;;0.60;0.60;;;;;;;5.14;45.19;99702.91;5093615;28;20516;-65
2023/04/06 07:00:29;;;;;;;2.25;1.70;;;;;;;5.28;45.53;99696.44;5092269;28;20134;-65
2023/04/06 07:02:59;;;;;;;1.30;1.23;;;;;;;5.26;45.31;99678.72;5093527;28;20070;-66
2023/04/06 07:05:28;;;;;;;1.55;1.45;;;;;;;5.32;44.80;99700.75;5092287;28;20139;-65
2023/04/06 07:07:59;;;;;;;1.55;1.35;;;;;;;5.32;44.68;99699.09;5093437;28;20102;-65
2023/04/06 07:10:28;;;;;;;1.17;0.93;;;;;;;5.37;45.14;99702.53;5093247;28;20036;-66
2023/04/06 07:12:59;;;;;;;0.60;0.60;;;;;;;5.46;44.86;99701.03;5093274;28;20063;-65
2023/04/06 07:15:28;;;;;;;1.52;1.42;;;;;;;5.43;44.66;99692.56;5093398;28;20048;-65
2023/04/06 07:17:57;;;;;;;0.73;0.73;;;;;;;5.46;44.44;99703.56;5092389;28;20048;-65
2023/04/06 07:20:27;;;;;;;0.45;0.45;;;;;;;5.53;44.40;99702.84;5094078;28;20036;-65
2023/04/06 07:22:57;;;;;;;2.03;1.23;;;;;;;5.65;44.51;99708.16;5108944;28;20071;-66
2023/04/06 07:25:25;;;;;;;0.93;0.93;;;;;;;5.73;43.91;99709.16;5092641;28;20405;-66
2023/04/06 07:27:54;;;;;;;0.55;0.55;;;;;;;5.66;44.12;99704.81;5091866;28;20073;-66
2023/04/06 07:30:27;;;;;;;1.38;1.23;;;;;;;5.66;43.74;99705.69;5092293;28;20444;-66
2023/04/06 07:33:00;;;;;;;1.27;1.17;;;;;;;5.75;43.76;99715.09;5092543;28;20035;-66
2023/04/06 07:35:30;;;;;;;1.38;1.20;;;;;;;5.82;44.45;99701.72;5109280;28;20055;-65
2023/04/06 07:37:59;;;;;;;;;;;;;;;5.85;43.96;99707.75;5092287;28;20060;-65
2023/04/06 07:40:28;;;;;;;0.38;0.38;;;;;;;5.96;44.29;99700.34;5092020;28;20277;-68
2023/04/06 07:42:58;;;;;;;0.50;0.50;;;;;;;6.00;43.54;99702.09;5094115;28;20040;-65
2023/04/06 07:45:29;;;;;;;2.33;1.90;;;;;;;6.02;43.76;99695.41;5095768;28;20441;-66
2023/04/06 07:47:59;;;;;;;1.00;0.95;;;;;;;6.10;43.76;99693.81;5097383;28;20547;-66
2023/04/06 07:50:28;;;;;;;;;;;;;;;6.17;43.19;99694.81;5097482;28;20567;-65
2023/04/06 07:52:58;;;;;;;4.45;1.85;;;;;;;6.19;43.47;99704.09;5095544;28;19926;-65
2023/04/06 07:55:27;;;;;;;;;;;;;;;6.24;42.97;99697.44;5112821;28;20055;-65
2023/04/06 07:57:56;;;;;;;1.05;1.00;;;;;;;6.30;43.16;99697.56;5097211;28;19955;-66
2023/04/06 08:00:25;;;;;;;0.60;0.60;;;;;;;6.39;43.06;99690.09;5096565;28;20044;-67
2023/04/06 08:02:55;;;;;;;0.60;0.60;;;;;;;6.38;42.49;99688.38;5096482;28;20047;-68
2023/04/06 08:05:24;;;;;;;0.85;0.85;;;;;;;6.31;42.63;99699.25;5096521;28;20072;-66
2023/04/06 08:07:53;;;;;;;0.65;0.65;;;;;;;6.38;42.50;99692.63;5096412;28;20524;-65
2023/04/06 08:10:22;;;;;;;0.73;0.73;;;;;;;6.53;42.69;99698.75;5096845;28;20040;-65
2023/04/06 08:12:50;;;;;;;1.13;1.02;;;;;;;6.72;42.59;99692.28;5096575;28;20490;-67
2023/04/06 08:15:19;;;;;;;1.75;1.65;;;;;;;6.80;42.63;99700.00;5096174;28;20067;-65
2023/04/06 08:17:48;;;;;;;1.10;1.00;;;;;;;6.86;42.36;99695.03;5096152;28;20040;-66
2023/04/06 08:20:18;;;;;;;0.50;0.50;;;;;;;7.12;42.23;99698.78;5096671;28;20436;-68
2023/04/06 08:22:47;;;;;;;1.02;1.00;;;;;;;7.05;42.13;99695.31;5096095;28;20490;-65
2023/04/06 08:25:17;;;;;;;1.40;1.30;;;;;;;7.14;42.04;99692.03;5096111;28;20143;-65
2023/04/06 08:27:46;;;;;;;3.45;2.33;;;;;;;7.28;41.95;99690.53;5096403;28;20537;-67
2023/04/06 08:30:15;;;;;;;1.52;1.42;;;;;;;7.41;42.14;99705.09;5095994;28;20048;-67
2023/04/06 08:32:44;;;;;;;2.72;1.80;;;;;;;7.22;40.84;99695.53;5096074;28;20547;-64
2023/04/06 08:35:13;;;;;;;0.50;0.50;;;;;;;7.16;41.48;99697.97;5096235;28;20060;-69
2023/04/06 08:37:43;;;;;;;1.33;1.27;;;;;;;7.27;41.10;99686.28;5095861;28;20089;-65
2023/04/06 08:40:13;;;;;;;1.35;1.23;;;;;;;7.33;41.34;99683.81;5096106;28;20064;-65
2023/04/06 08:42:50;;;;;;;1.17;1.10;;;;;;;7.24;41.12;99649.03;5095494;28;20078;-67
2023/04/06 08:45:21;;;;;;;1.25;1.15;;;;;;;7.44;41.45;99682.25;5095648;28;20093;-65
2023/04/06 08:47:52;;;;;;;1.75;1.65;;;;;;;7.72;41.96;99679.19;5095752;28;20052;-65
2023/04/06 08:50:22;;;;;;;1.13;1.08;;;;;;;7.74;41.73;99682.59;5095600;28;20067;-66
2023/04/06 08:52:52;;;;;;;4.43;1.95;;;;;;;7.81;40.87;99676.75;5086336;28;20040;-66
2023/04/06 08:55:22;;;;;;;0.40;0.40;;;;;;;7.98;40.62;99672.69;5078002;28;20107;-66
2023/04/06 08:57:54;;;;;;;1.52;1.42;;;;;;;8.08;40.92;99669.41;5075748;28;20461;-65
2023/04/06 09:00:25;;;;;;;2.03;1.83;;;;;;;8.27;41.22;99664.50;5075627;28;20124;-67
2023/04/06 09:02:56;;;;;;;2.25;2.05;;;;;;;8.11;40.19;99660.91;5075101;28;20041;-65
2023/04/06 09:05:27;;;;;;;5.07;1.88;;;;;;;8.08;39.83;99664.31;5074948;28;20040;-69
2023/04/06 09:07:57;;;;;;;3.03;2.78;;;;;;;8.09;40.30;99657.50;5074936;28;20044;-65
2023/04/06 09:10:26;;;;;;;1.60;1.50;;;;;;;8.25;40.44;99661.06;5074993;28;20062;-66
2023/04/06 09:13:05;;;;;;;0.60;0.60;;;;;;;8.30;39.84;99659.44;5075005;28;20052;-65
2023/04/06 09:15:34;;;;;;;0.73;0.73;;;;;;;8.40;40.25;99651.00;5074697;28;20048;-64
2023/04/06 09:18:02;;;;;;;1.07;0.87;;;;;;;8.50;40.24;99657.88;5073563;28;20049;-66
2023/04/06 09:20:31;;;;;;;1.20;1.13;;;;;;;8.48;39.93;99659.56;5074445;28;20278;-65
2023/04/06 09:23:02;;;;;;;1.20;1.10;;;;;;;8.27;38.94;99654.31;5074224;28;20136;-66
2023/04/06 09:25:32;;;;;;;1.08;1.05;;;;;;;8.36;39.25;99649.31;5074482;28;20072;-66
2023/04/06 09:28:02;;;;;;;0.68;0.68;;;;;;;8.39;39.54;99650.19;5074696;28;20049;-65
2023/04/06 09:30:30;;;;;;;1.70;1.55;;;;;;;8.49;39.05;99636.72;5074588;28;20082;-66
2023/04/06 09:33:00;;;;;;;1.17;1.08;;;;;;;8.31;38.18;99640.78;5074396;28;20037;-65
2023/04/06 09:35:31;;;;;;;3.13;1.95;;;;;;;8.34;38.51;99635.72;5074565;28;20487;-65
2023/04/06 09:38:12;;;;;;;2.97;1.25;;;;;;;8.21;37.59;99644.91;5074711;28;20475;-65
2023/04/06 09:40:52;;;;;;;0.93;0.93;;;;;;;8.36;38.30;99628.97;5074692;28;20509;-65
2023/04/06 09:43:27;;;;;;;0.60;0.60;;;;;;;8.35;37.83;99637.44;5074112;28;20136;-65
2023/04/06 09:45:58;;;;;;;1.02;0.98;;;;;;;8.58;38.30;99635.91;5074125;28;20118;-65
2023/04/06 09:48:29;;;;;;;1.02;0.98;;;;;;;8.73;38.18;99636.00;5074470;28;20437;-66
2023/04/06 09:51:02;;;;;;;0.63;0.63;;;;;;;8.66;38.51;99629.19;5073906;28;20045;-65
2023/04/06 09:53:34;;;;;;;0.82;0.80;;;;;;;8.83;38.76;99622.47;5074482;28;20047;-67
2023/04/06 09:56:09;;;;;;;1.35;1.20;;;;;;;8.81;38.24;99626.69;5073939;28;20093;-65
2023/04/06 09:58:41;;;;;;;1.13;1.02;;;;;;;8.77;37.39;99614.81;5073879;28;20532;-65
2023/04/06 10:01:13;;;;;;;0.70;0.63;;;;;;;8.62;36.90;99623.22;5074420;28;20086;-69
2023/04/06 10:03:50;;;;;;;0.50;0.50;;;;;;;8.49;36.68;99618.03;5073654;28;20113;-66
2023/04/06 10:06:25;;;;;;;1.45;1.20;;;;;;;8.49;37.53;99610.41;5073765;28;20119;-65
2023/04/06 10:08:57;;;;;;;2.50;1.92;;;;;;;8.61;36.92;99615.56;5073925;28;20390;-64
2023/04/06 10:11:27;;;;;;;0.73;0.63;;;;;;;8.68;37.17;99613.09;5073827;28;20055;-64
2023/04/06 10:13:57;;;;;;;0.40;0.40;;;;;;;8.84;37.82;99624.19;5073760;28;20044;-64
2023/04/06 10:16:27;;;;;;;1.00;0.85;;;;;;;8.88;37.74;99613.16;5073624;28;20049;-64
2023/04/06 10:19:03;;;;;;;2.22;2.03;;;;;;;9.10;37.33;99607.31;5073799;28;20407;-64
2023/04/06 10:21:34;;;;;;;0.45;0.45;;;;;;;9.21;37.27;99608.19;5073698;28;20040;-66
2023/04/06 10:24:11;;;;;;;0.47;0.47;;;;;;;9.27;36.35;99610.78;5073617;28;20048;-65
2023/04/06 10:26:41;;;;;;;0.75;0.75;;;;;;;9.23;36.64;99588.72;5073906;28;20048;-66
2023/04/06 10:29:09;;;;;;;1.70;1.00;;;;;;;9.32;36.42;99593.81;5073633;28;20044;-66
2023/04/06 10:31:43;;;;;;;0.70;0.70;;;;;;;9.43;35.62;99587.06;5073617;28;20494;-66
2023/04/06 10:34:12;;;;;;;0.75;0.70;;;;;;;9.68;36.73;99587.09;5073686;28;20108;-65
2023/04/06 10:36:41;;;;;;;1.15;1.05;;;;;;;9.72;35.53;99576.06;5073516;28;20064;-66
2023/04/06 10:39:11;;;;;;;0.98;0.98;;;;;;;9.83;35.63;99577.78;5073589;28;20037;-66
2023/04/06 10:41:44;;;;;;;1.00;1.00;;;;;;;9.80;35.89;99576.91;5073572;28;20049;-66
2023/04/06 10:44:21;;;;;;;1.20;1.05;;;;;;;9.83;35.39;99577.78;5073249;28;20045;-72
2023/04/06 10:47:00;;;;;;;2.83;1.65;;;;;;;9.73;35.67;99570.13;5073404;28;20044;-66
2023/04/06 10:49:29;;;;;;;2.75;1.85;;;;;;;9.95;35.38;99574.38;5073400;28;20044;-65
2023/04/06 10:51:58;;;;;;;1.35;1.27;;;;;;;10.09;35.12;99581.19;5073394;28;20044;-68
2023/04/06 10:54:31;;;;;;;2.10;1.20;;;;;;;10.20;34.90;99573.53;5073427;28;20457;-66
2023/04/06 10:57:00;;;;;;;1.30;1.20;;;;;;;10.41;35.66;99570.97;5073301;28;20045;-65
2023/04/06 10:59:30;;;;;;;1.52;1.42;;;;;;;10.27;34.94;99565.03;5073395;28;20041;-65
2023/04/06 11:01:59;;;;;;;5.13;1.65;;;;;;;10.14;34.55;99563.34;5073157;28;20048;-66
2023/04/06 11:04:27;;;;;;;0.82;0.82;;;;;;;10.14;35.22;99565.91;5073501;28;20098;-65
2023/04/06 11:06:57;;;;;;;0.97;0.93;;;;;;;10.28;34.60;99556.53;5073044;28;20127;-69
2023/04/06 11:09:27;;;;;;;;;;;;;;;9.89;34.53;99559.06;5073956;28;20132;-64
2023/04/06 11:11:57;;;;;;;0.80;0.80;;;;;;;9.52;33.60;99530.19;5073052;28;20012;-65
2023/04/06 11:14:26;;;;;;;0.90;0.90;;;;;;;9.77;34.01;99566.72;5073207;28;20045;-64
2023/04/06 11:16:56;;;;;;;3.42;1.30;;;;;;;9.85;34.66;99554.84;5072930;28;20040;-65
2023/04/06 11:19:26;;;;;;;;;;;;;;;9.98;34.69;99556.53;5076739;28;20048;-67
2023/04/06 11:21:54;;;;;;;0.68;0.68;;;;;;;9.92;34.88;99548.88;5077184;28;19921;-64
2023/04/06 11:24:26;;;;;;;0.73;0.68;;;;;;;10.00;34.88;99554.84;5077587;28;20071;-64
2023/04/06 11:26:58;;;;;;;0.70;0.70;;;;;;;10.09;35.09;99544.63;5076951;28;20112;-66
2023/04/06 11:29:28;;;;;;;1.83;1.15;;;;;;;10.27;35.33;99544.63;5076540;28;20044;-66
2023/04/06 11:32:00;;;;;;;1.10;0.88;;;;;;;10.36;35.29;99543.78;5076315;28;20048;-66
2023/04/06 11:34:30;;;;;;;0.93;0.93;;;;;;;10.27;34.81;99544.63;5076073;28;20072;-66
2023/04/06 11:37:01;;;;;;;2.92;1.83;;;;;;;10.18;34.97;99542.09;5077286;28;20048;-66
2023/04/06 11:39:30;;;;;;;4.95;1.33;;;;;;;10.03;34.64;99549.72;5076527;28;20495;-66
2023/04/06 11:42:03;;;;;;;1.13;0.85;;;;;;;10.04;34.67;99541.22;5076735;28;20094;-66
2023/04/06 11:44:38;;;;;;;1.42;1.27;;;;;;;10.04;34.89;99536.13;5076497;28;20517;-66
2023/04/06 11:47:08;;;;;;;2.85;1.92;;;;;;;9.90;35.68;99532.75;5076547;28;20070;-66
2023/04/06 11:49:38;;;;;;;;;;;;;;;9.87;34.61;99537.84;5076961;28;20099;-65
2023/04/06 11:52:16;;;;;;;0.85;0.65;;;;;;;9.81;35.47;99530.22;5076526;28;20023;-64
2023/04/06 11:54:46;;;;;;;1.67;1.13;;;;;;;9.83;35.49;99531.91;5076542;28;20068;-64
2023/04/06 11:57:18;;;;;;;10.00;1.40;;;;;;;9.83;35.89;99529.34;5076382;28;20500;-65
2023/04/06 11:59:47;;;;;;;1.45;1.35;;;;;;;9.81;35.13;99528.47;5076689;28;20079;-66
2023/04/06 12:02:16;;;;;;;5.07;4.47;;;;;;;9.68;35.12;99531.03;5076725;28;20065;-65
2023/04/06 12:04:45;;;;;;;2.15;1.95;;;;;;;9.72;35.97;99525.09;5076433;28;20064;-65